createdAt,value
2018-05-10T00:02:21.584Z,13.50
2018-05-10T00:04:48.708Z,13.80
2018-05-10T00:07:15.195Z,13.70
2018-05-10T00:09:41.612Z,13.90
2018-05-10T00:12:08.731Z,14.20
2018-05-10T00:14:35.165Z,14.20
2018-05-10T00:17:02.327Z,13.80
2018-05-10T00:19:28.722Z,13.80
2018-05-10T00:21:55.199Z,13.60
2018-05-10T00:24:22.429Z,13.30
2018-05-10T00:26:48.781Z,13.30
2018-05-10T00:29:15.944Z,13.40
2018-05-10T00:31:43.072Z,13.40
2018-05-10T00:34:09.488Z,13.40
2018-05-10T00:36:35.951Z,13.40
2018-05-10T00:39:03.165Z,13.40
2018-05-10T00:41:29.584Z,13.40
2018-05-10T00:43:55.997Z,13.40
2018-05-10T00:46:22.407Z,13.40
2018-05-10T00:48:49.564Z,13.50
2018-05-10T00:51:15.970Z,13.50
2018-05-10T00:53:43.094Z,13.40
2018-05-10T00:56:09.494Z,13.40
2018-05-10T00:58:35.903Z,13.40
2018-05-10T01:01:03.075Z,13.30
2018-05-10T01:03:29.493Z,13.30
2018-05-10T01:05:55.942Z,13.30
2018-05-10T01:08:22.359Z,13.30
2018-05-10T01:10:49.761Z,13.40
2018-05-10T01:13:16.304Z,13.40
2018-05-10T01:15:42.711Z,13.40
2018-05-10T01:18:09.152Z,13.20
2018-05-10T01:20:35.567Z,13.20
2018-05-10T01:23:01.966Z,13.20
2018-05-10T01:25:28.360Z,13.30
2018-05-10T01:27:54.764Z,13.10
2018-05-10T01:30:21.167Z,13.10
2018-05-10T01:32:48.304Z,13.10
2018-05-10T01:35:28.444Z,13.20
2018-05-10T01:37:54.847Z,13.20
2018-05-10T01:40:21.240Z,13.20
2018-05-10T01:42:48.420Z,13.30
2018-05-10T01:45:14.807Z,13.20
2018-05-10T01:47:41.197Z,13.20
2018-05-10T01:50:07.602Z,13.10
2018-05-10T01:52:33.990Z,13.10
2018-05-10T01:55:00.371Z,13.10
2018-05-10T01:57:26.788Z,13.10
2018-05-10T01:59:53.919Z,13.20
2018-05-10T02:02:20.319Z,13.10
2018-05-10T02:04:46.762Z,13.10
2018-05-10T02:07:13.189Z,13.00
2018-05-10T02:09:39.595Z,13.00
2018-05-10T02:12:06.015Z,12.80
2018-05-10T02:14:32.406Z,12.90
2018-05-10T02:16:58.798Z,12.90
2018-05-10T02:19:25.195Z,13.00
2018-05-10T02:21:52.398Z,12.90
2018-05-10T02:24:18.802Z,12.90
2018-05-10T02:26:45.203Z,12.80
2018-05-10T02:29:12.339Z,12.80
2018-05-10T02:31:38.733Z,12.80
2018-05-10T02:34:05.161Z,12.80
2018-05-10T02:36:31.633Z,12.70
2018-05-10T02:38:57.973Z,12.70
2018-05-10T02:41:24.355Z,12.60
2018-05-10T02:43:50.760Z,12.70
2018-05-10T02:46:17.882Z,12.50
2018-05-10T02:48:45.025Z,12.50
2018-05-10T02:51:12.179Z,12.30
2018-05-10T02:53:40.050Z,12.30
2018-05-10T02:56:07.934Z,12.30
2018-05-10T02:58:34.424Z,12.30
2018-05-10T03:01:00.847Z,12.20
2018-05-10T03:03:27.250Z,12.20
2018-05-10T03:05:53.666Z,12.00
2018-05-10T03:08:20.066Z,12.00
2018-05-10T03:10:46.466Z,12.00
2018-05-10T03:13:12.893Z,12.00
2018-05-10T03:15:39.295Z,12.00
2018-05-10T03:18:06.468Z,12.00
2018-05-10T03:20:32.864Z,12.00
2018-05-10T03:23:00.023Z,12.10
2018-05-10T03:25:27.211Z,12.10
2018-05-10T03:27:53.611Z,12.10
2018-05-10T03:30:20.785Z,12.10
2018-05-10T03:32:47.896Z,12.00
2018-05-10T03:35:15.043Z,11.90
2018-05-10T03:37:42.378Z,11.90
2018-05-10T03:40:08.774Z,11.90
2018-05-10T03:42:35.173Z,11.80
2018-05-10T03:45:02.300Z,11.70
2018-05-10T03:47:28.679Z,11.70
2018-05-10T03:49:55.111Z,11.70
2018-05-10T03:52:21.487Z,11.80
2018-05-10T03:54:47.871Z,11.80
2018-05-10T03:57:14.264Z,11.70
2018-05-10T03:59:40.655Z,11.70
2018-05-10T04:02:07.054Z,11.50
2018-05-10T04:04:46.485Z,11.40
2018-05-10T04:07:25.931Z,11.30
2018-05-10T04:10:05.440Z,11.20
2018-05-10T04:12:33.378Z,11.20
2018-05-10T04:14:59.774Z,11.20
2018-05-10T04:17:26.164Z,11.30
2018-05-10T04:19:52.553Z,11.40
2018-05-10T04:22:18.954Z,11.50
2018-05-10T04:24:45.356Z,11.40
2018-05-10T04:27:11.788Z,11.40
2018-05-10T04:29:38.184Z,11.40
2018-05-10T04:32:04.606Z,11.60
2018-05-10T04:34:31.741Z,11.60
2018-05-10T04:36:59.028Z,11.70
2018-05-10T04:39:25.415Z,11.70
2018-05-10T04:41:52.088Z,11.90
2018-05-10T04:44:18.506Z,12.00
2018-05-10T04:46:45.682Z,12.20
2018-05-10T04:49:12.108Z,12.20
2018-05-10T04:51:38.564Z,12.20
2018-05-10T04:54:05.009Z,12.30
2018-05-10T04:56:31.404Z,12.40
2018-05-10T04:58:57.800Z,12.50
2018-05-10T05:01:24.952Z,12.60
2018-05-10T05:03:52.088Z,12.50
2018-05-10T05:06:18.496Z,12.50
2018-05-10T05:08:44.974Z,12.70
2018-05-10T05:11:11.300Z,12.80
2018-05-10T05:13:37.692Z,12.80
2018-05-10T05:16:04.147Z,12.90
2018-05-10T05:18:30.577Z,13.10
2018-05-10T05:20:56.987Z,13.40
2018-05-10T05:23:23.383Z,13.40
2018-05-10T05:25:49.852Z,13.60
2018-05-10T05:28:16.236Z,13.80
2018-05-10T05:30:43.380Z,14.30
2018-05-10T05:33:09.768Z,14.30
2018-05-10T05:35:36.275Z,14.30
2018-05-10T05:38:02.658Z,14.60
2018-05-10T05:40:29.072Z,15.20
2018-05-10T05:42:55.536Z,15.70
2018-05-10T05:45:22.114Z,16.10
2018-05-10T05:47:48.511Z,16.50
2018-05-10T05:50:14.905Z,16.90
2018-05-10T05:52:41.305Z,17.40
2018-05-10T05:55:07.715Z,18.00
2018-05-10T05:57:34.873Z,18.40
2018-05-10T06:00:02.065Z,18.80
2018-05-10T06:02:28.456Z,18.70
2018-05-10T06:04:55.617Z,19.40
2018-05-10T06:07:22.014Z,19.40
2018-05-10T06:09:48.423Z,19.60
2018-05-10T06:12:14.819Z,19.90
2018-05-10T06:14:41.219Z,19.90
2018-05-10T06:17:07.695Z,19.80
2018-05-10T06:19:34.118Z,19.80
2018-05-10T06:22:00.518Z,19.60
2018-05-10T06:24:27.668Z,19.50
2018-05-10T06:26:54.067Z,19.50
2018-05-10T06:29:20.463Z,19.80
2018-05-10T06:31:46.867Z,19.70
2018-05-10T06:34:13.998Z,20.10
2018-05-10T06:36:40.399Z,20.10
2018-05-10T06:39:06.803Z,20.20
2018-05-10T06:41:33.962Z,20.40
2018-05-10T06:44:00.419Z,20.40
2018-05-10T06:46:26.810Z,20.70
2018-05-10T06:48:53.992Z,20.10
2018-05-10T06:51:20.414Z,20.10
2018-05-10T06:53:46.824Z,20.10
2018-05-10T06:56:13.972Z,19.70
2018-05-10T06:58:41.128Z,19.50
2018-05-10T07:01:08.287Z,19.30
2018-05-10T07:03:35.467Z,19.30
2018-05-10T07:06:01.855Z,19.30
2018-05-10T07:08:28.994Z,19.80
2018-05-10T07:10:55.387Z,19.80
2018-05-10T07:13:21.808Z,20.10
2018-05-10T07:15:48.214Z,20.70
2018-05-10T07:18:15.360Z,20.90
2018-05-10T07:20:42.500Z,20.90
2018-05-10T07:23:09.903Z,20.90
2018-05-10T07:25:36.315Z,20.90
2018-05-10T07:28:02.750Z,20.90
2018-05-10T07:30:29.169Z,20.70
2018-05-10T07:32:56.330Z,20.90
2018-05-10T07:35:22.726Z,20.80
2018-05-10T07:37:49.884Z,21.30
2018-05-10T07:40:17.142Z,21.60
2018-05-10T07:42:44.296Z,22.10
2018-05-10T07:45:11.436Z,22.20
2018-05-10T07:47:38.629Z,22.50
2018-05-10T07:50:05.060Z,22.40
2018-05-10T07:52:31.469Z,22.40
2018-05-10T07:54:58.636Z,22.10
2018-05-10T07:57:25.043Z,22.10
2018-05-10T07:59:52.188Z,21.40
2018-05-10T08:02:19.484Z,21.30
2018-05-10T08:04:45.946Z,21.20
2018-05-10T08:07:12.413Z,21.80
2018-05-10T08:09:39.560Z,22.20
2018-05-10T08:12:06.722Z,22.10
2018-05-10T08:14:33.870Z,22.00
2018-05-10T08:17:00.320Z,22.00
2018-05-10T08:19:26.759Z,21.70
2018-05-10T08:21:53.146Z,21.90
2018-05-10T08:24:19.542Z,22.10
2018-05-10T08:26:59.612Z,22.50
2018-05-10T08:29:39.142Z,22.50
2018-05-10T08:32:05.576Z,22.50
2018-05-10T08:34:31.981Z,22.20
2018-05-10T08:36:58.384Z,22.40
2018-05-10T08:39:25.526Z,22.10
2018-05-10T08:41:52.678Z,21.90
2018-05-10T08:44:19.824Z,22.10
2018-05-10T08:46:46.216Z,22.00
2018-05-10T08:49:12.624Z,22.00
2018-05-10T08:51:39.045Z,22.10
2018-05-10T08:54:06.195Z,21.90
2018-05-10T08:56:32.631Z,21.90
2018-05-10T08:58:59.773Z,22.00
2018-05-10T09:01:27.982Z,22.30
2018-05-10T09:03:54.536Z,22.30
2018-05-10T09:06:20.921Z,22.40
2018-05-10T09:08:48.129Z,22.60
2018-05-10T09:11:14.525Z,22.60
2018-05-10T09:13:40.937Z,22.60
2018-05-10T09:16:08.085Z,22.50
2018-05-10T09:18:35.218Z,22.10
2018-05-10T09:21:03.122Z,22.10
2018-05-10T09:23:29.514Z,22.10
2018-05-10T09:25:57.493Z,21.80
2018-05-10T09:28:23.870Z,21.70
2018-05-10T09:30:50.293Z,21.90
2018-05-10T09:33:16.691Z,22.10
2018-05-10T09:35:43.848Z,22.60
2018-05-10T09:38:10.984Z,22.80
2018-05-10T09:40:37.366Z,22.80
2018-05-10T09:43:03.759Z,22.60
2018-05-10T09:45:30.164Z,22.90
2018-05-10T09:47:56.640Z,22.90
2018-05-10T09:50:23.118Z,22.70
2018-05-10T09:52:49.581Z,23.10
2018-05-10T09:55:16.789Z,23.60
2018-05-10T09:57:43.254Z,23.50
2018-05-10T10:00:10.544Z,23.50
2018-05-10T10:02:37.019Z,23.50
2018-05-10T10:05:03.544Z,23.40
2018-05-10T10:07:29.966Z,23.60
2018-05-10T10:09:56.444Z,23.50
2018-05-10T10:12:22.815Z,23.80
2018-05-10T10:14:49.942Z,23.50
2018-05-10T10:17:17.852Z,23.20
2018-05-10T10:19:44.285Z,23.20
2018-05-10T10:22:10.685Z,23.20
2018-05-10T10:24:37.803Z,23.40
2018-05-10T10:27:04.195Z,23.40
2018-05-10T10:29:30.637Z,23.40
2018-05-10T10:31:57.025Z,23.40
2018-05-10T10:34:24.178Z,22.90
2018-05-10T10:36:50.587Z,22.90
2018-05-10T10:39:16.990Z,22.90
2018-05-10T10:41:44.358Z,23.30
2018-05-10T10:44:10.747Z,23.60
2018-05-10T10:46:37.134Z,23.30
2018-05-10T10:49:03.549Z,23.10
2018-05-10T10:51:30.006Z,23.50
2018-05-10T10:53:56.499Z,23.80
2018-05-10T10:56:22.834Z,23.90
2018-05-10T10:58:49.272Z,23.70
2018-05-10T11:01:15.681Z,24.10
2018-05-10T11:03:42.867Z,24.70
2018-05-10T11:06:09.283Z,24.70
2018-05-10T11:08:35.686Z,24.80
2018-05-10T11:11:02.901Z,24.40
2018-05-10T11:13:29.304Z,24.30
2018-05-10T11:15:55.776Z,24.50
2018-05-10T11:18:22.200Z,24.20
2018-05-10T11:20:48.714Z,23.90
2018-05-10T11:23:15.062Z,24.10
2018-05-10T11:25:41.479Z,24.10
2018-05-10T11:28:07.874Z,24.10
2018-05-10T11:30:34.336Z,24.30
2018-05-10T11:33:00.841Z,24.20
2018-05-10T11:35:27.159Z,24.30
2018-05-10T11:37:55.037Z,24.60
2018-05-10T11:40:21.449Z,24.60
2018-05-10T11:42:49.340Z,24.40
2018-05-10T11:45:16.471Z,24.70
2018-05-10T11:47:44.351Z,25.20
2018-05-10T11:50:11.510Z,25.30
2018-05-10T11:52:38.679Z,25.10
2018-05-10T11:55:05.097Z,25.10
2018-05-10T11:57:32.242Z,25.20
2018-05-10T11:59:59.391Z,24.90
2018-05-10T12:02:25.818Z,24.90
2018-05-10T12:04:53.690Z,24.90
2018-05-10T12:07:20.090Z,24.90
2018-05-10T12:09:46.524Z,24.70
2018-05-10T12:24:59.713Z,25.10
2018-05-10T12:27:26.108Z,25.10
2018-05-10T12:29:53.314Z,24.50
2018-05-10T12:32:19.764Z,24.50
2018-05-10T12:34:46.180Z,24.20
2018-05-10T12:37:12.579Z,24.30
2018-05-10T12:39:38.975Z,24.70
2018-05-10T12:42:05.355Z,25.00
2018-05-10T12:44:31.776Z,25.20
2018-05-10T12:46:58.928Z,25.50
2018-05-10T12:49:25.302Z,25.50
2018-05-10T12:51:51.695Z,25.40
2018-05-10T12:54:18.117Z,25.10
2018-05-10T12:56:45.230Z,24.60
2018-05-10T12:59:13.116Z,24.60
2018-05-10T13:01:40.246Z,24.60
2018-05-10T13:04:06.660Z,24.60
2018-05-10T13:06:33.112Z,24.70
2018-05-10T13:08:59.547Z,24.70
2018-05-10T13:11:26.760Z,24.20
2018-05-10T13:13:53.200Z,24.20
2018-05-10T13:16:19.634Z,24.30
2018-05-10T13:18:47.059Z,24.60
2018-05-10T13:21:13.448Z,24.70
2018-05-10T13:23:39.900Z,24.60
2018-05-10T13:26:06.329Z,24.40
2018-05-10T13:28:32.781Z,24.70
2018-05-10T13:30:59.329Z,24.90
2018-05-10T13:33:25.778Z,24.80
2018-05-10T13:35:52.260Z,24.90
2018-05-10T13:38:19.438Z,25.10
2018-05-10T13:40:45.808Z,25.10
2018-05-10T13:43:12.229Z,25.10
2018-05-10T13:45:38.625Z,24.60
2018-05-10T13:48:05.803Z,24.70
2018-05-10T13:50:32.221Z,24.70
2018-05-10T13:52:59.411Z,24.40
2018-05-10T13:55:25.832Z,24.40
2018-05-10T13:58:07.147Z,24.50
2018-05-10T14:00:33.540Z,24.60
2018-05-10T14:02:59.948Z,24.70
2018-05-10T14:05:27.091Z,24.50
2018-05-10T14:07:53.542Z,24.50
2018-05-10T14:10:19.956Z,23.80
2018-05-10T14:12:46.373Z,23.30
2018-05-10T14:15:13.195Z,23.10
2018-05-10T14:17:39.659Z,22.70
2018-05-10T14:20:06.820Z,21.60
2018-05-10T14:22:33.989Z,21.20
2018-05-10T14:25:00.417Z,21.20
2018-05-10T14:27:26.866Z,20.60
2018-05-10T14:29:53.263Z,19.70
2018-05-10T14:32:20.426Z,18.40
2018-05-10T14:34:47.588Z,17.60
2018-05-10T14:37:14.797Z,16.80
2018-05-10T14:39:41.228Z,16.70
2018-05-10T14:42:07.658Z,16.20
2018-05-10T14:44:34.054Z,15.90
2018-05-10T14:47:00.460Z,15.70
2018-05-10T14:49:29.667Z,15.60
2018-05-10T14:51:56.195Z,15.60
2018-05-10T14:54:23.341Z,15.50
2018-05-10T14:56:50.499Z,15.50
2018-05-10T14:59:17.647Z,15.60
2018-05-10T15:01:44.810Z,15.70
2018-05-10T15:04:11.203Z,15.70
2018-05-10T15:06:37.609Z,15.40
2018-05-10T15:09:04.027Z,15.10
2018-05-10T15:11:30.414Z,15.00
2018-05-10T15:13:57.565Z,14.90
2018-05-10T15:16:23.969Z,14.90
2018-05-10T15:18:50.354Z,14.90
2018-05-10T15:21:16.793Z,15.00
2018-05-10T15:23:43.243Z,14.90
2018-05-10T15:26:10.357Z,15.00
2018-05-10T15:28:37.737Z,15.00
2018-05-10T15:31:04.177Z,15.00
2018-05-10T15:33:30.575Z,15.00
2018-05-10T15:35:57.705Z,15.30
2018-05-10T15:38:24.111Z,15.30
2018-05-10T15:40:50.497Z,15.60
2018-05-10T15:43:17.642Z,16.10
2018-05-10T15:45:45.036Z,16.20
2018-05-10T15:48:11.450Z,16.20
2018-05-10T15:50:37.835Z,16.40
2018-05-10T15:53:04.360Z,16.40
2018-05-10T15:55:30.773Z,16.60
2018-05-10T15:57:57.182Z,16.50
2018-05-10T16:00:23.569Z,16.60
2018-05-10T16:02:50.005Z,16.80
2018-05-10T16:05:17.949Z,17.30
2018-05-10T16:07:44.353Z,17.30
2018-05-10T16:10:10.814Z,17.40
2018-05-10T16:12:37.211Z,17.60
2018-05-10T16:15:04.372Z,17.90
2018-05-10T16:17:30.844Z,17.80
2018-05-10T16:19:58.020Z,18.30
2018-05-10T16:22:24.466Z,18.20
2018-05-10T16:24:51.612Z,18.60
2018-05-10T16:27:18.768Z,18.70
2018-05-10T16:29:45.923Z,18.90
2018-05-10T16:32:12.330Z,18.90
2018-05-10T16:34:38.766Z,19.10
2018-05-10T16:37:05.996Z,19.10
2018-05-10T16:39:32.477Z,19.30
2018-05-10T16:41:59.623Z,19.80
2018-05-10T16:44:26.043Z,19.70
2018-05-10T16:46:52.507Z,19.90
2018-05-10T16:49:18.921Z,20.00
2018-05-10T16:51:46.072Z,20.00
2018-05-10T16:54:13.215Z,20.00
2018-05-10T16:56:40.398Z,20.00
2018-05-10T16:59:06.897Z,20.00
2018-05-10T17:01:33.304Z,20.00
2018-05-10T17:03:59.694Z,20.00
2018-05-10T17:06:26.148Z,20.10
2018-05-10T17:08:52.564Z,20.10
2018-05-10T17:11:18.956Z,20.10
2018-05-10T17:13:45.356Z,20.10
2018-05-10T17:16:11.763Z,20.20
2018-05-10T17:18:38.217Z,20.30
2018-05-10T17:21:04.620Z,20.40
2018-05-10T17:23:31.004Z,20.40
2018-05-10T17:25:57.396Z,20.40
2018-05-10T17:28:23.841Z,20.30
2018-05-10T17:30:50.310Z,20.40
2018-05-10T17:33:17.517Z,20.30
2018-05-10T17:35:43.929Z,20.30
2018-05-10T17:38:10.342Z,20.20
2018-05-10T17:40:37.500Z,20.10
2018-05-10T17:43:04.646Z,20.10
2018-05-10T17:45:31.782Z,20.10
2018-05-10T17:47:59.659Z,20.10
2018-05-10T17:50:26.791Z,20.00
2018-05-10T17:52:53.188Z,20.00
2018-05-10T17:55:19.788Z,19.90
2018-05-10T17:57:46.147Z,19.90
2018-05-10T18:00:12.522Z,19.90
2018-05-10T18:02:38.931Z,19.90
2018-05-10T18:05:05.351Z,19.70
2018-05-10T18:07:31.777Z,19.70
2018-05-10T18:09:58.232Z,19.60
2018-05-10T18:12:24.663Z,19.50
2018-05-10T18:14:51.066Z,19.10
2018-05-10T18:17:17.474Z,18.80
2018-05-10T18:19:44.629Z,18.60
2018-05-10T18:22:12.593Z,18.60
2018-05-10T18:24:39.770Z,18.50
2018-05-10T18:27:06.174Z,18.50
2018-05-10T18:29:33.405Z,18.50
2018-05-10T18:31:59.811Z,18.30
2018-05-10T18:34:26.194Z,18.20
2018-05-10T18:36:53.339Z,17.80
2018-05-10T18:39:20.493Z,17.60
2018-05-10T18:41:46.894Z,17.60
2018-05-10T18:44:13.284Z,17.80
2018-05-10T18:46:39.686Z,17.60
2018-05-10T18:49:06.095Z,17.70
2018-05-10T18:51:32.488Z,17.90
2018-05-10T18:53:58.854Z,17.90
2018-05-10T18:56:25.252Z,17.90
2018-05-10T18:58:51.752Z,17.90
2018-05-10T19:01:18.949Z,18.00
2018-05-10T19:03:45.335Z,18.00
2018-05-10T19:06:12.484Z,18.00
2018-05-10T19:08:38.890Z,18.00
2018-05-10T19:11:05.300Z,18.00
2018-05-10T19:13:31.721Z,17.90
2018-05-10T19:15:58.110Z,17.90
2018-05-10T19:18:25.201Z,18.10
2018-05-10T19:20:51.643Z,18.20
2018-05-10T19:23:18.026Z,18.10
2018-05-10T19:25:44.426Z,18.10
2018-05-10T19:28:10.891Z,18.10
2018-05-10T19:30:37.492Z,18.00
2018-05-10T19:33:03.887Z,18.10
2018-05-10T19:35:31.085Z,18.10
2018-05-10T19:37:57.495Z,18.20
2018-05-10T19:40:23.917Z,18.10
2018-05-10T19:42:50.341Z,18.00
2018-05-10T19:45:16.862Z,17.90
2018-05-10T19:47:43.239Z,18.00
2018-05-10T19:50:09.649Z,18.00
2018-05-10T19:52:36.052Z,18.00
2018-05-10T19:55:03.246Z,17.70
2018-05-10T19:57:29.646Z,17.70
2018-05-10T20:00:00.688Z,17.70
2018-05-10T20:02:27.818Z,17.70
2018-05-10T20:04:54.202Z,17.70
2018-05-10T20:07:20.606Z,17.70
2018-05-10T20:09:47.728Z,17.70
2018-05-10T20:12:14.120Z,17.60
2018-05-10T20:14:40.550Z,17.60
2018-05-10T20:17:06.992Z,17.60
2018-05-10T20:19:33.382Z,17.50
2018-05-10T20:22:00.511Z,17.50
2018-05-10T20:24:26.905Z,17.40
2018-05-10T20:26:53.310Z,17.50
2018-05-10T20:29:20.425Z,17.50
2018-05-10T20:31:46.795Z,17.50
2018-05-10T20:34:13.202Z,17.40
2018-05-10T20:36:40.359Z,17.40
2018-05-10T20:39:07.493Z,17.40
2018-05-10T20:41:33.896Z,17.40
2018-05-10T20:44:00.307Z,17.40
2018-05-10T20:46:26.726Z,17.30
2018-05-10T20:48:53.130Z,17.20
2018-05-10T20:51:20.287Z,17.10
2018-05-10T20:53:47.423Z,17.00
2018-05-10T20:56:13.829Z,17.00
2018-05-10T20:58:40.237Z,17.10
2018-05-10T21:01:06.662Z,17.00
2018-05-10T21:03:33.087Z,17.00
2018-05-10T21:05:59.502Z,17.00
2018-05-10T21:08:26.641Z,16.90
2018-05-10T21:10:53.793Z,16.90
2018-05-10T21:13:20.923Z,16.90
2018-05-10T21:15:47.324Z,16.90
2018-05-10T21:18:13.744Z,16.90
2018-05-10T21:20:40.159Z,16.90
2018-05-10T21:23:07.386Z,16.70
2018-05-10T21:25:33.734Z,16.70
2018-05-10T21:28:00.897Z,16.70
2018-05-10T21:30:27.291Z,16.70
2018-05-10T21:32:53.680Z,16.80
2018-05-10T21:35:20.168Z,16.80
2018-05-10T21:37:47.300Z,16.70
2018-05-10T21:40:13.701Z,16.70
2018-05-10T21:42:40.080Z,16.70
2018-05-10T21:45:06.480Z,16.60
2018-05-10T21:47:32.905Z,16.60
2018-05-10T21:50:05.175Z,16.60
2018-05-10T21:52:31.583Z,16.60
2018-05-10T21:54:58.046Z,16.50
2018-05-10T21:57:25.161Z,16.50
2018-05-10T21:59:51.554Z,16.50
2018-05-10T22:02:22.667Z,16.50
2018-05-10T22:04:49.101Z,16.50
2018-05-10T22:07:15.661Z,16.50
2018-05-10T22:09:42.070Z,16.50
2018-05-10T22:12:08.558Z,16.40
2018-05-10T22:14:34.900Z,16.50
2018-05-10T22:17:02.058Z,16.60
2018-05-10T22:19:28.448Z,16.60
2018-05-10T22:21:54.855Z,16.70
2018-05-10T22:24:21.260Z,16.60
2018-05-10T22:26:47.689Z,16.60
2018-05-10T22:29:14.087Z,16.60
2018-05-10T22:31:40.484Z,16.60
2018-05-10T22:34:06.884Z,16.50
2018-05-10T22:36:33.283Z,16.60
2018-05-10T22:38:59.681Z,16.50
2018-05-10T22:41:26.123Z,16.50
2018-05-10T22:43:52.544Z,16.50
2018-05-10T22:46:18.941Z,16.60
2018-05-10T22:48:45.354Z,16.50
2018-05-10T22:51:12.495Z,16.60
2018-05-10T22:53:38.871Z,16.50
2018-05-10T22:56:05.291Z,16.60
2018-05-10T22:58:31.697Z,16.60
2018-05-10T23:00:58.107Z,16.60
2018-05-10T23:03:24.499Z,16.60
2018-05-10T23:05:50.890Z,16.60
2018-05-10T23:08:17.342Z,16.50
2018-05-10T23:10:44.506Z,16.60
2018-05-10T23:13:10.910Z,16.60
2018-05-10T23:15:37.302Z,16.60
2018-05-10T23:18:03.806Z,16.40
2018-05-10T23:20:30.195Z,16.30
2018-05-10T23:22:56.586Z,16.30
2018-05-10T23:25:22.979Z,16.10
2018-05-10T23:27:50.108Z,15.90
2018-05-10T23:30:16.507Z,15.90
2018-05-10T23:32:42.883Z,15.90
2018-05-10T23:35:09.302Z,15.90
2018-05-10T23:37:35.691Z,15.80
2018-05-10T23:40:02.175Z,15.70
2018-05-10T23:42:30.051Z,15.70
2018-05-10T23:44:56.450Z,15.70
2018-05-10T23:47:22.826Z,15.70
2018-05-10T23:49:49.964Z,15.90
2018-05-10T23:52:16.350Z,15.90
2018-05-10T23:54:42.742Z,15.90
2018-05-10T23:57:09.873Z,16.00
2018-05-10T23:59:36.258Z,16.00
